Aérodrome :
LOGIN :

S'inscrire | Disclaimer

   EN    FR    IT 

 










Légende :    VFR   VFR Marginal   IFR   IFR Intensif   IFR Très Intensif
Visi : 
Plafond : 
>= 8 km
>= 3000ft
5 à 8 km
1000 à 3000 ft
1500m à 5 km
500 à 1000 ft
800 à 1500m
200 à 500 ft
< 800m
< 200 ft
Symboles :   Orages  Brouillard  Fortes neiges  Fortes précipitations  Vent > 20 kt
SIGMETs :   Divers  Orages  Givrage  Turbulence  Onde Orograph.  Cendres Volcan.







- Altitude de l'aérodrome : 28 ft
- Code IATA : OLA


ENOL - Ørland

DERNIER METAR :
  • 191350Z 13012KT 9999 FEW040 SCT070 19/08 Q1011 NOSIG

METARs EXPIRÉS :
  • 191320Z 14012KT 9999 FEW045 SCT070 18/08 Q1012 NOSIG
  • 191250Z 14015KT 9999 FEW045 SCT070 17/09 Q1012 NOSIG
  • 191220Z 13016KT 9999 FEW045 SCT070 16/09 Q1012 NOSIG
  • 191150Z 14010KT 9999 FEW045 SCT070 17/09 Q1012 NOSIG
  • 191120Z 13011KT 9999 FEW045 SCT070 BKN160 16/10 Q1013 NOSIG

TAF TAF ENOL
Valide du 19 à 12h jusqu'au 20 à 12h UTC


1912/2012 13010KT 9999 FEW025 BKN050
BECMG 1918/1921 24007KT
TEMPO 2000/2009 BKN008
Pas de NOTAMs connus pour ce terrain.



MET'MAP, la Météo Aéronautique d'un coup d'oeil ! - Copyright ORBIFLY Décembre 2007 - Disclaimer

ORBIFLY MET'MAP TEAM :

Programmation & Développement : Alexandra Zaïnal
Conception & Développement : Baudouin d'Aumeries
Co-Programmation & Développement : Marc-Olivier Méhu
Soutien technique & logistique : Manuel Goepfert

Contact : metmap@orbifly.com




SOURCES & CREDITS :

   NOAA